Main page
METAR-TAF:

METAR-TAF

Airports :

Bornholm Airport

Rønne, Denmark

latitude: 55-04N, longitude: 014-45E, elevation: 16 m

Current weather observation

The report was made 17 minutes ago, at 18:20 UTC
Wind 9 kt from the East/Northeast
Temperature 18°C
Humidity 73%
Pressure 1019 hPa
Visibility 10 km or more

METAR: EKRN 251820Z AUTO 06009KT 9999 FEW150/// 18/13 Q1019

Time: 20:37 (18:37 UTC)

Forecast

The report was made 1 hour and 35 minutes ago, at 17:02 UTC
Forecast valid from 25 at 18 UTC to 26 at 03 UTC
Wind 6 kt from the East
Visibility 10 km or more
Scattered clouds at a height of 3000 ft
Probability 40%
from 25 at 20 UTC to 26 at 03 UTC
Visibility: 4000 m
Broken clouds at a height of 3000 ft, Cumulonimbus.
rain showers,

TAF: EKRN 251702Z 2518/2603 09006KT 9999 SCT030 PROB40 2520/2603 4000 SHRA BKN030CB

Weather observations and forecasts of more than 4000 airports (METAR and TAF reports).

The available stations are represented by yellow and red dots on the map.

Hover mouse over dot to see the name of the station.

Then click to see weather observations and forecasts.

To change the map : click on the green buttons with a black cross to zoom in, on the green button with a dash to zoom out, or on the green arrows for adjacent maps.


METAR-TAF: